sensor_id;sensor_type;location;lat;lon;timestamp;temperature;humidity
65239;SHT30;51827;51.186;6.926;2023-10-08T00:00:43;21.09;63.52
65239;SHT30;51827;51.186;6.926;2023-10-08T00:01:43;21.06;63.54
65239;SHT30;51827;51.186;6.926;2023-10-08T00:02:43;21.06;63.55
65239;SHT30;51827;51.186;6.926;2023-10-08T00:03:43;21.06;63.54
65239;SHT30;51827;51.186;6.926;2023-10-08T00:04:43;21.06;63.54
65239;SHT30;51827;51.186;6.926;2023-10-08T00:05:44;21.07;63.57
65239;SHT30;51827;51.186;6.926;2023-10-08T00:06:44;21.07;63.58
65239;SHT30;51827;51.186;6.926;2023-10-08T00:07:44;21.07;63.58
65239;SHT30;51827;51.186;6.926;2023-10-08T00:08:44;21.07;63.54
65239;SHT30;51827;51.186;6.926;2023-10-08T00:09:45;21.09;63.54
65239;SHT30;51827;51.186;6.926;2023-10-08T00:10:45;21.07;63.53
65239;SHT30;51827;51.186;6.926;2023-10-08T00:11:45;21.06;63.54
65239;SHT30;51827;51.186;6.926;2023-10-08T00:12:45;21.07;63.56
65239;SHT30;51827;51.186;6.926;2023-10-08T00:13:45;21.05;63.54
65239;SHT30;51827;51.186;6.926;2023-10-08T00:14:48;21.09;63.53
65239;SHT30;51827;51.186;6.926;2023-10-08T00:15:48;21.05;63.53
65239;SHT30;51827;51.186;6.926;2023-10-08T00:16:49;21.06;63.54
65239;SHT30;51827;51.186;6.926;2023-10-08T00:17:49;21.07;63.52
65239;SHT30;51827;51.186;6.926;2023-10-08T00:18:49;21.06;63.56
65239;SHT30;51827;51.186;6.926;2023-10-08T00:19:49;21.07;63.60
65239;SHT30;51827;51.186;6.926;2023-10-08T00:20:50;21.06;63.54
65239;SHT30;51827;51.186;6.926;2023-10-08T00:21:50;21.06;63.58
65239;SHT30;51827;51.186;6.926;2023-10-08T00:22:50;21.09;63.56
65239;SHT30;51827;51.186;6.926;2023-10-08T00:23:50;21.06;63.60
65239;SHT30;51827;51.186;6.926;2023-10-08T00:24:51;21.07;63.57
65239;SHT30;51827;51.186;6.926;2023-10-08T00:25:51;21.07;63.55
65239;SHT30;51827;51.186;6.926;2023-10-08T00:26:52;21.06;63.56
65239;SHT30;51827;51.186;6.926;2023-10-08T00:27:52;21.09;63.59
65239;SHT30;51827;51.186;6.926;2023-10-08T00:28:56;21.07;63.57
65239;SHT30;51827;51.186;6.926;2023-10-08T00:29:56;21.06;63.59
65239;SHT30;51827;51.186;6.926;2023-10-08T00:30:56;21.09;63.57
65239;SHT30;51827;51.186;6.926;2023-10-08T00:31:56;21.07;63.61
65239;SHT30;51827;51.186;6.926;2023-10-08T00:32:56;21.07;63.55
65239;SHT30;51827;51.186;6.926;2023-10-08T00:33:57;21.06;63.57
65239;SHT30;51827;51.186;6.926;2023-10-08T00:34:57;21.05;63.58
65239;SHT30;51827;51.186;6.926;2023-10-08T00:35:58;21.07;63.57
65239;SHT30;51827;51.186;6.926;2023-10-08T00:36:58;21.06;63.55
65239;SHT30;51827;51.186;6.926;2023-10-08T00:37:58;21.05;63.57
65239;SHT30;51827;51.186;6.926;2023-10-08T00:38:58;21.06;63.55
65239;SHT30;51827;51.186;6.926;2023-10-08T00:39:58;21.06;63.58
65239;SHT30;51827;51.186;6.926;2023-10-08T00:40:58;21.07;63.57
65239;SHT30;51827;51.186;6.926;2023-10-08T00:41:58;21.06;63.56
65239;SHT30;51827;51.186;6.926;2023-10-08T00:42:59;21.06;63.58
65239;SHT30;51827;51.186;6.926;2023-10-08T00:43:59;21.06;63.56
65239;SHT30;51827;51.186;6.926;2023-10-08T00:44:59;21.06;63.60
65239;SHT30;51827;51.186;6.926;2023-10-08T00:45:59;21.06;63.60
65239;SHT30;51827;51.186;6.926;2023-10-08T00:46:59;21.05;63.58
65239;SHT30;51827;51.186;6.926;2023-10-08T00:48:00;21.06;63.57
65239;SHT30;51827;51.186;6.926;2023-10-08T00:49:01;21.06;63.64
65239;SHT30;51827;51.186;6.926;2023-10-08T00:50:01;21.05;63.65
65239;SHT30;51827;51.186;6.926;2023-10-08T00:51:02;21.05;63.66
65239;SHT30;51827;51.186;6.926;2023-10-08T00:52:02;21.07;63.65
65239;SHT30;51827;51.186;6.926;2023-10-08T00:53:03;21.06;63.58
65239;SHT30;51827;51.186;6.926;2023-10-08T00:54:03;21.05;63.62
65239;SHT30;51827;51.186;6.926;2023-10-08T00:55:03;21.05;63.60
65239;SHT30;51827;51.186;6.926;2023-10-08T00:56:04;21.05;63.63
65239;SHT30;51827;51.186;6.926;2023-10-08T00:57:04;21.07;63.58
65239;SHT30;51827;51.186;6.926;2023-10-08T00:58:04;21.06;63.64
65239;SHT30;51827;51.186;6.926;2023-10-08T00:59:05;21.05;63.59
65239;SHT30;51827;51.186;6.926;2023-10-08T01:00:05;21.03;63.60
65239;SHT30;51827;51.186;6.926;2023-10-08T01:01:05;21.06;63.59
65239;SHT30;51827;51.186;6.926;2023-10-08T01:02:06;21.06;63.60
65239;SHT30;51827;51.186;6.926;2023-10-08T01:03:06;21.06;63.60
65239;SHT30;51827;51.186;6.926;2023-10-08T01:04:06;21.06;63.59
65239;SHT30;51827;51.186;6.926;2023-10-08T01:05:06;21.05;63.59
65239;SHT30;51827;51.186;6.926;2023-10-08T01:06:06;21.05;63.63
65239;SHT30;51827;51.186;6.926;2023-10-08T01:07:07;21.07;63.59
65239;SHT30;51827;51.186;6.926;2023-10-08T01:08:07;21.05;63.58
65239;SHT30;51827;51.186;6.926;2023-10-08T01:09:07;21.05;63.58
65239;SHT30;51827;51.186;6.926;2023-10-08T01:10:07;21.07;63.59
65239;SHT30;51827;51.186;6.926;2023-10-08T01:11:17;21.05;63.61
65239;SHT30;51827;51.186;6.926;2023-10-08T01:12:18;21.06;63.58
65239;SHT30;51827;51.186;6.926;2023-10-08T01:13:18;21.06;63.61
65239;SHT30;51827;51.186;6.926;2023-10-08T01:14:18;21.03;63.58
65239;SHT30;51827;51.186;6.926;2023-10-08T01:15:19;21.05;63.57
65239;SHT30;51827;51.186;6.926;2023-10-08T01:16:19;21.05;63.61
65239;SHT30;51827;51.186;6.926;2023-10-08T01:17:19;21.05;63.59
65239;SHT30;51827;51.186;6.926;2023-10-08T01:18:20;21.06;63.59
65239;SHT30;51827;51.186;6.926;2023-10-08T01:19:20;21.05;63.58
65239;SHT30;51827;51.186;6.926;2023-10-08T01:20:20;21.05;63.55
65239;SHT30;51827;51.186;6.926;2023-10-08T01:21:20;21.06;63.55
65239;SHT30;51827;51.186;6.926;2023-10-08T01:22:20;21.03;63.60
65239;SHT30;51827;51.186;6.926;2023-10-08T01:23:20;21.03;63.59
65239;SHT30;51827;51.186;6.926;2023-10-08T01:24:21;21.02;63.57
65239;SHT30;51827;51.186;6.926;2023-10-08T01:25:21;21.03;63.57
65239;SHT30;51827;51.186;6.926;2023-10-08T01:26:21;21.05;63.56
65239;SHT30;51827;51.186;6.926;2023-10-08T01:27:21;21.06;63.56
65239;SHT30;51827;51.186;6.926;2023-10-08T01:28:21;21.05;63.57
65239;SHT30;51827;51.186;6.926;2023-10-08T01:29:21;21.05;63.57
65239;SHT30;51827;51.186;6.926;2023-10-08T01:30:22;21.05;63.52
65239;SHT30;51827;51.186;6.926;2023-10-08T01:31:22;21.03;63.57
65239;SHT30;51827;51.186;6.926;2023-10-08T01:32:22;21.05;63.55
65239;SHT30;51827;51.186;6.926;2023-10-08T01:33:22;21.05;63.56
65239;SHT30;51827;51.186;6.926;2023-10-08T01:34:22;21.06;63.53
65239;SHT30;51827;51.186;6.926;2023-10-08T01:35:23;21.05;63.55
65239;SHT30;51827;51.186;6.926;2023-10-08T01:36:24;21.05;63.55
65239;SHT30;51827;51.186;6.926;2023-10-08T01:37:24;21.06;63.54
65239;SHT30;51827;51.186;6.926;2023-10-08T01:38:24;21.06;63.51
65239;SHT30;51827;51.186;6.926;2023-10-08T01:39:24;21.03;63.58
65239;SHT30;51827;51.186;6.926;2023-10-08T01:40:25;21.05;63.55
65239;SHT30;51827;51.186;6.926;2023-10-08T01:41:25;21.03;63.57
65239;SHT30;51827;51.186;6.926;2023-10-08T01:42:26;21.03;63.57
65239;SHT30;51827;51.186;6.926;2023-10-08T01:43:26;21.03;63.56
65239;SHT30;51827;51.186;6.926;2023-10-08T01:44:26;21.03;63.57
65239;SHT30;51827;51.186;6.926;2023-10-08T01:45:26;21.03;63.57
65239;SHT30;51827;51.186;6.926;2023-10-08T01:46:26;21.05;63.56
65239;SHT30;51827;51.186;6.926;2023-10-08T01:47:26;21.03;63.54
65239;SHT30;51827;51.186;6.926;2023-10-08T01:48:26;21.06;63.55
65239;SHT30;51827;51.186;6.926;2023-10-08T01:49:27;21.05;63.55
65239;SHT30;51827;51.186;6.926;2023-10-08T01:50:27;21.03;63.51
65239;SHT30;51827;51.186;6.926;2023-10-08T01:51:27;21.05;63.52
65239;SHT30;51827;51.186;6.926;2023-10-08T01:52:27;21.05;63.57
65239;SHT30;51827;51.186;6.926;2023-10-08T01:53:27;21.05;63.54
65239;SHT30;51827;51.186;6.926;2023-10-08T01:54:27;21.02;63.56
65239;SHT30;51827;51.186;6.926;2023-10-08T01:55:28;21.02;63.57
65239;SHT30;51827;51.186;6.926;2023-10-08T01:56:28;21.02;63.54
65239;SHT30;51827;51.186;6.926;2023-10-08T01:57:28;21.05;63.56
65239;SHT30;51827;51.186;6.926;2023-10-08T01:58:28;21.03;63.56
65239;SHT30;51827;51.186;6.926;2023-10-08T01:59:30;21.03;63.55
65239;SHT30;51827;51.186;6.926;2023-10-08T02:00:31;21.03;63.54
65239;SHT30;51827;51.186;6.926;2023-10-08T02:01:31;21.02;63.55
65239;SHT30;51827;51.186;6.926;2023-10-08T02:02:31;21.02;63.57
65239;SHT30;51827;51.186;6.926;2023-10-08T02:03:31;21.05;63.59
65239;SHT30;51827;51.186;6.926;2023-10-08T02:04:32;21.02;63.51
65239;SHT30;51827;51.186;6.926;2023-10-08T02:05:32;21.03;63.53
65239;SHT30;51827;51.186;6.926;2023-10-08T02:06:33;21.02;63.53
65239;SHT30;51827;51.186;6.926;2023-10-08T02:07:33;21.00;63.55
65239;SHT30;51827;51.186;6.926;2023-10-08T02:08:33;21.03;63.56
65239;SHT30;51827;51.186;6.926;2023-10-08T02:09:34;21.03;63.53
65239;SHT30;51827;51.186;6.926;2023-10-08T02:10:34;21.05;63.54
65239;SHT30;51827;51.186;6.926;2023-10-08T02:11:41;21.03;63.57
65239;SHT30;51827;51.186;6.926;2023-10-08T02:12:41;21.03;63.54
65239;SHT30;51827;51.186;6.926;2023-10-08T02:13:41;21.03;63.55
65239;SHT30;51827;51.186;6.926;2023-10-08T02:14:42;21.02;63.58
65239;SHT30;51827;51.186;6.926;2023-10-08T02:15:45;21.02;63.59
65239;SHT30;51827;51.186;6.926;2023-10-08T02:16:46;21.05;63.53
65239;SHT30;51827;51.186;6.926;2023-10-08T02:17:46;21.03;63.55
65239;SHT30;51827;51.186;6.926;2023-10-08T02:18:46;21.03;63.59
65239;SHT30;51827;51.186;6.926;2023-10-08T02:19:47;21.03;63.56
65239;SHT30;51827;51.186;6.926;2023-10-08T02:20:47;21.02;63.52
65239;SHT30;51827;51.186;6.926;2023-10-08T02:21:47;21.03;63.52
65239;SHT30;51827;51.186;6.926;2023-10-08T02:22:47;21.03;63.54
65239;SHT30;51827;51.186;6.926;2023-10-08T02:23:47;21.03;63.52
65239;SHT30;51827;51.186;6.926;2023-10-08T02:24:48;21.03;63.53
65239;SHT30;51827;51.186;6.926;2023-10-08T02:25:48;21.02;63.55
65239;SHT30;51827;51.186;6.926;2023-10-08T02:26:48;21.02;63.54
65239;SHT30;51827;51.186;6.926;2023-10-08T02:27:48;21.03;63.55
65239;SHT30;51827;51.186;6.926;2023-10-08T02:28:48;21.03;63.55
65239;SHT30;51827;51.186;6.926;2023-10-08T02:29:49;21.03;63.60
65239;SHT30;51827;51.186;6.926;2023-10-08T02:30:49;21.03;63.55
65239;SHT30;51827;51.186;6.926;2023-10-08T02:31:49;21.00;63.52
65239;SHT30;51827;51.186;6.926;2023-10-08T02:32:49;21.00;63.57
65239;SHT30;51827;51.186;6.926;2023-10-08T02:33:49;21.02;63.53
65239;SHT30;51827;51.186;6.926;2023-10-08T02:34:49;21.03;63.53
65239;SHT30;51827;51.186;6.926;2023-10-08T02:35:50;21.00;63.55
65239;SHT30;51827;51.186;6.926;2023-10-08T02:36:50;21.03;63.56
65239;SHT30;51827;51.186;6.926;2023-10-08T02:37:50;21.02;63.56
65239;SHT30;51827;51.186;6.926;2023-10-08T02:38:50;21.02;63.53
65239;SHT30;51827;51.186;6.926;2023-10-08T02:39:50;21.00;63.55
65239;SHT30;51827;51.186;6.926;2023-10-08T02:40:50;21.02;63.54
65239;SHT30;51827;51.186;6.926;2023-10-08T02:41:51;21.02;63.51
65239;SHT30;51827;51.186;6.926;2023-10-08T02:42:51;21.02;63.53
65239;SHT30;51827;51.186;6.926;2023-10-08T02:43:51;21.00;63.50
65239;SHT30;51827;51.186;6.926;2023-10-08T02:44:52;21.00;63.52
65239;SHT30;51827;51.186;6.926;2023-10-08T02:45:52;21.00;63.54
65239;SHT30;51827;51.186;6.926;2023-10-08T02:46:52;21.00;63.53
65239;SHT30;51827;51.186;6.926;2023-10-08T02:47:52;21.02;63.53
65239;SHT30;51827;51.186;6.926;2023-10-08T02:48:52;20.99;63.53
65239;SHT30;51827;51.186;6.926;2023-10-08T02:49:53;20.99;63.54
65239;SHT30;51827;51.186;6.926;2023-10-08T02:50:53;20.98;63.53
65239;SHT30;51827;51.186;6.926;2023-10-08T02:51:54;21.00;63.55
65239;SHT30;51827;51.186;6.926;2023-10-08T02:52:54;20.99;63.55
65239;SHT30;51827;51.186;6.926;2023-10-08T02:53:54;20.99;63.56
65239;SHT30;51827;51.186;6.926;2023-10-08T02:54:54;21.00;63.53
65239;SHT30;51827;51.186;6.926;2023-10-08T02:55:54;21.00;63.55
65239;SHT30;51827;51.186;6.926;2023-10-08T02:56:55;21.02;63.57
65239;SHT30;51827;51.186;6.926;2023-10-08T02:57:55;20.99;63.56
65239;SHT30;51827;51.186;6.926;2023-10-08T02:58:55;21.02;63.58
65239;SHT30;51827;51.186;6.926;2023-10-08T02:59:55;21.00;63.53
65239;SHT30;51827;51.186;6.926;2023-10-08T03:00:55;20.99;63.54
65239;SHT30;51827;51.186;6.926;2023-10-08T03:01:55;20.99;63.58
65239;SHT30;51827;51.186;6.926;2023-10-08T03:02:56;21.02;63.56
65239;SHT30;51827;51.186;6.926;2023-10-08T03:03:56;20.99;63.54
65239;SHT30;51827;51.186;6.926;2023-10-08T03:04:56;21.02;63.54
65239;SHT30;51827;51.186;6.926;2023-10-08T03:05:57;20.99;63.54
65239;SHT30;51827;51.186;6.926;2023-10-08T03:06:57;20.99;63.53
65239;SHT30;51827;51.186;6.926;2023-10-08T03:07:57;20.99;63.54
65239;SHT30;51827;51.186;6.926;2023-10-08T03:08:57;21.00;63.56
65239;SHT30;51827;51.186;6.926;2023-10-08T03:09:58;20.96;63.56
65239;SHT30;51827;51.186;6.926;2023-10-08T03:10:58;21.00;63.56
65239;SHT30;51827;51.186;6.926;2023-10-08T03:11:58;21.00;63.60
65239;SHT30;51827;51.186;6.926;2023-10-08T03:12:58;20.98;63.54
65239;SHT30;51827;51.186;6.926;2023-10-08T03:13:58;21.00;63.60
65239;SHT30;51827;51.186;6.926;2023-10-08T03:14:59;21.00;63.58
65239;SHT30;51827;51.186;6.926;2023-10-08T03:15:59;20.98;63.56
65239;SHT30;51827;51.186;6.926;2023-10-08T03:16:59;21.00;63.58
65239;SHT30;51827;51.186;6.926;2023-10-08T03:18:00;20.99;63.56
65239;SHT30;51827;51.186;6.926;2023-10-08T03:19:03;20.99;63.56
65239;SHT30;51827;51.186;6.926;2023-10-08T03:20:03;20.99;63.56
65239;SHT30;51827;51.186;6.926;2023-10-08T03:21:04;20.99;63.59
65239;SHT30;51827;51.186;6.926;2023-10-08T03:22:04;20.98;63.56
65239;SHT30;51827;51.186;6.926;2023-10-08T03:23:04;21.00;63.57
65239;SHT30;51827;51.186;6.926;2023-10-08T03:24:05;20.99;63.56
65239;SHT30;51827;51.186;6.926;2023-10-08T03:25:05;20.98;63.58
65239;SHT30;51827;51.186;6.926;2023-10-08T03:26:05;21.00;63.60
65239;SHT30;51827;51.186;6.926;2023-10-08T03:27:05;20.99;63.58
65239;SHT30;51827;51.186;6.926;2023-10-08T03:28:06;20.98;63.55
65239;SHT30;51827;51.186;6.926;2023-10-08T03:29:06;21.00;63.59
65239;SHT30;51827;51.186;6.926;2023-10-08T03:30:06;20.98;63.61
65239;SHT30;51827;51.186;6.926;2023-10-08T03:31:06;20.99;63.59
65239;SHT30;51827;51.186;6.926;2023-10-08T03:32:10;20.99;63.56
65239;SHT30;51827;51.186;6.926;2023-10-08T03:33:11;20.98;63.58
65239;SHT30;51827;51.186;6.926;2023-10-08T03:34:11;20.96;63.58
65239;SHT30;51827;51.186;6.926;2023-10-08T03:35:11;20.99;63.59
65239;SHT30;51827;51.186;6.926;2023-10-08T03:36:11;20.99;63.62
65239;SHT30;51827;51.186;6.926;2023-10-08T03:37:15;20.98;63.56
65239;SHT30;51827;51.186;6.926;2023-10-08T03:38:16;20.95;63.59
65239;SHT30;51827;51.186;6.926;2023-10-08T03:39:16;20.95;63.60
65239;SHT30;51827;51.186;6.926;2023-10-08T03:40:17;20.96;63.64
65239;SHT30;51827;51.186;6.926;2023-10-08T03:41:23;20.98;63.63
65239;SHT30;51827;51.186;6.926;2023-10-08T03:42:24;20.96;63.63
65239;SHT30;51827;51.186;6.926;2023-10-08T03:43:24;20.98;63.63
65239;SHT30;51827;51.186;6.926;2023-10-08T03:44:24;20.99;63.60
65239;SHT30;51827;51.186;6.926;2023-10-08T03:45:24;20.96;63.60
65239;SHT30;51827;51.186;6.926;2023-10-08T03:46:24;20.98;63.59
65239;SHT30;51827;51.186;6.926;2023-10-08T03:47:24;20.98;63.60
65239;SHT30;51827;51.186;6.926;2023-10-08T03:48:25;20.96;63.59
65239;SHT30;51827;51.186;6.926;2023-10-08T03:49:25;20.98;63.61
65239;SHT30;51827;51.186;6.926;2023-10-08T03:50:25;20.96;63.60
65239;SHT30;51827;51.186;6.926;2023-10-08T03:51:25;20.96;63.59
65239;SHT30;51827;51.186;6.926;2023-10-08T03:52:25;20.96;63.63
65239;SHT30;51827;51.186;6.926;2023-10-08T03:53:26;20.98;63.60
65239;SHT30;51827;51.186;6.926;2023-10-08T03:54:26;20.98;63.63
65239;SHT30;51827;51.186;6.926;2023-10-08T03:55:26;20.98;63.58
65239;SHT30;51827;51.186;6.926;2023-10-08T03:56:26;20.96;63.58
65239;SHT30;51827;51.186;6.926;2023-10-08T03:57:26;20.96;63.58
65239;SHT30;51827;51.186;6.926;2023-10-08T03:58:26;20.96;63.60
65239;SHT30;51827;51.186;6.926;2023-10-08T03:59:27;20.98;63.59
65239;SHT30;51827;51.186;6.926;2023-10-08T04:00:27;20.95;63.58
65239;SHT30;51827;51.186;6.926;2023-10-08T04:01:27;20.95;63.61
65239;SHT30;51827;51.186;6.926;2023-10-08T04:02:27;20.95;63.57
65239;SHT30;51827;51.186;6.926;2023-10-08T04:03:27;20.96;63.59
65239;SHT30;51827;51.186;6.926;2023-10-08T04:04:27;20.98;63.57
65239;SHT30;51827;51.186;6.926;2023-10-08T04:05:28;20.96;63.60
65239;SHT30;51827;51.186;6.926;2023-10-08T04:06:28;20.95;63.63
65239;SHT30;51827;51.186;6.926;2023-10-08T04:07:28;20.96;63.59
65239;SHT30;51827;51.186;6.926;2023-10-08T04:08:28;20.98;63.59
65239;SHT30;51827;51.186;6.926;2023-10-08T04:09:29;20.96;63.67
65239;SHT30;51827;51.186;6.926;2023-10-08T04:10:29;20.96;63.66
65239;SHT30;51827;51.186;6.926;2023-10-08T04:11:30;20.98;63.62
65239;SHT30;51827;51.186;6.926;2023-10-08T04:12:30;20.95;63.68
65239;SHT30;51827;51.186;6.926;2023-10-08T04:13:30;20.93;63.66
65239;SHT30;51827;51.186;6.926;2023-10-08T04:14:30;20.95;63.61
65239;SHT30;51827;51.186;6.926;2023-10-08T04:15:30;20.96;63.61
65239;SHT30;51827;51.186;6.926;2023-10-08T04:16:34;20.95;63.61
65239;SHT30;51827;51.186;6.926;2023-10-08T04:17:35;20.96;63.60
65239;SHT30;51827;51.186;6.926;2023-10-08T04:18:35;20.95;63.61
65239;SHT30;51827;51.186;6.926;2023-10-08T04:19:35;20.95;63.59
65239;SHT30;51827;51.186;6.926;2023-10-08T04:20:35;20.95;63.62
65239;SHT30;51827;51.186;6.926;2023-10-08T04:21:36;20.96;63.62
65239;SHT30;51827;51.186;6.926;2023-10-08T04:22:36;20.96;63.59
65239;SHT30;51827;51.186;6.926;2023-10-08T04:23:36;20.95;63.58
65239;SHT30;51827;51.186;6.926;2023-10-08T04:24:36;20.96;63.56
65239;SHT30;51827;51.186;6.926;2023-10-08T04:25:36;20.95;63.56
65239;SHT30;51827;51.186;6.926;2023-10-08T04:26:36;20.95;63.55
65239;SHT30;51827;51.186;6.926;2023-10-08T04:27:37;20.96;63.53
65239;SHT30;51827;51.186;6.926;2023-10-08T04:28:37;20.96;63.55
65239;SHT30;51827;51.186;6.926;2023-10-08T04:29:37;20.95;63.53
65239;SHT30;51827;51.186;6.926;2023-10-08T04:30:37;20.95;63.51
65239;SHT30;51827;51.186;6.926;2023-10-08T04:31:37;20.95;63.56
65239;SHT30;51827;51.186;6.926;2023-10-08T04:32:37;20.98;63.51
65239;SHT30;51827;51.186;6.926;2023-10-08T04:33:37;20.98;63.54
65239;SHT30;51827;51.186;6.926;2023-10-08T04:34:38;20.96;63.53
65239;SHT30;51827;51.186;6.926;2023-10-08T04:35:38;20.95;63.53
65239;SHT30;51827;51.186;6.926;2023-10-08T04:36:39;20.96;63.52
65239;SHT30;51827;51.186;6.926;2023-10-08T04:37:39;20.96;63.51
65239;SHT30;51827;51.186;6.926;2023-10-08T04:38:39;20.96;63.55
65239;SHT30;51827;51.186;6.926;2023-10-08T04:39:40;20.96;63.55
65239;SHT30;51827;51.186;6.926;2023-10-08T04:40:40;20.95;63.55
65239;SHT30;51827;51.186;6.926;2023-10-08T04:41:40;20.96;63.52
65239;SHT30;51827;51.186;6.926;2023-10-08T04:42:41;20.96;63.52
65239;SHT30;51827;51.186;6.926;2023-10-08T04:43:41;20.98;63.52
65239;SHT30;51827;51.186;6.926;2023-10-08T04:44:41;20.93;63.52
65239;SHT30;51827;51.186;6.926;2023-10-08T04:45:41;20.96;63.53
65239;SHT30;51827;51.186;6.926;2023-10-08T04:46:44;20.96;63.52
65239;SHT30;51827;51.186;6.926;2023-10-08T04:47:45;20.93;63.51
65239;SHT30;51827;51.186;6.926;2023-10-08T04:48:45;20.95;63.49
65239;SHT30;51827;51.186;6.926;2023-10-08T04:49:45;20.95;63.45
65239;SHT30;51827;51.186;6.926;2023-10-08T04:50:46;20.93;63.49
65239;SHT30;51827;51.186;6.926;2023-10-08T04:51:47;20.96;63.51
65239;SHT30;51827;51.186;6.926;2023-10-08T04:52:47;20.96;63.48
65239;SHT30;51827;51.186;6.926;2023-10-08T04:53:47;20.95;63.47
65239;SHT30;51827;51.186;6.926;2023-10-08T04:54:47;20.93;63.49
65239;SHT30;51827;51.186;6.926;2023-10-08T04:55:47;20.92;63.47
65239;SHT30;51827;51.186;6.926;2023-10-08T04:56:47;20.93;63.43
65239;SHT30;51827;51.186;6.926;2023-10-08T04:57:47;20.96;63.48
65239;SHT30;51827;51.186;6.926;2023-10-08T04:58:48;20.95;63.45
65239;SHT30;51827;51.186;6.926;2023-10-08T04:59:48;20.93;63.50
65239;SHT30;51827;51.186;6.926;2023-10-08T05:00:49;20.96;63.44
65239;SHT30;51827;51.186;6.926;2023-10-08T05:01:49;20.95;63.47
65239;SHT30;51827;51.186;6.926;2023-10-08T05:02:49;20.93;63.43
65239;SHT30;51827;51.186;6.926;2023-10-08T05:03:50;20.93;63.42
65239;SHT30;51827;51.186;6.926;2023-10-08T05:04:50;20.95;63.42
65239;SHT30;51827;51.186;6.926;2023-10-08T05:05:50;20.93;63.38
65239;SHT30;51827;51.186;6.926;2023-10-08T05:06:51;20.92;63.39
65239;SHT30;51827;51.186;6.926;2023-10-08T05:07:51;20.93;63.43
65239;SHT30;51827;51.186;6.926;2023-10-08T05:08:51;20.92;63.38
65239;SHT30;51827;51.186;6.926;2023-10-08T05:09:51;20.93;63.41
65239;SHT30;51827;51.186;6.926;2023-10-08T05:10:51;20.93;63.37
65239;SHT30;51827;51.186;6.926;2023-10-08T05:11:52;20.91;63.37
65239;SHT30;51827;51.186;6.926;2023-10-08T05:12:53;20.93;63.40
65239;SHT30;51827;51.186;6.926;2023-10-08T05:13:53;20.93;63.41
65239;SHT30;51827;51.186;6.926;2023-10-08T05:14:53;20.93;63.35
65239;SHT30;51827;51.186;6.926;2023-10-08T05:15:53;20.95;63.36
65239;SHT30;51827;51.186;6.926;2023-10-08T05:16:57;20.93;63.36
65239;SHT30;51827;51.186;6.926;2023-10-08T05:17:57;20.93;63.33
65239;SHT30;51827;51.186;6.926;2023-10-08T05:18:57;20.93;63.33
65239;SHT30;51827;51.186;6.926;2023-10-08T05:19:57;20.92;63.35
65239;SHT30;51827;51.186;6.926;2023-10-08T05:20:57;20.93;63.34
65239;SHT30;51827;51.186;6.926;2023-10-08T05:21:57;20.92;63.33
65239;SHT30;51827;51.186;6.926;2023-10-08T05:22:58;20.91;63.32
65239;SHT30;51827;51.186;6.926;2023-10-08T05:23:58;20.91;63.32
65239;SHT30;51827;51.186;6.926;2023-10-08T05:24:58;20.92;63.33
65239;SHT30;51827;51.186;6.926;2023-10-08T05:25:58;20.92;63.33
65239;SHT30;51827;51.186;6.926;2023-10-08T05:26:58;20.93;63.29
65239;SHT30;51827;51.186;6.926;2023-10-08T05:27:58;20.93;63.32
65239;SHT30;51827;51.186;6.926;2023-10-08T05:28:58;20.92;63.29
65239;SHT30;51827;51.186;6.926;2023-10-08T05:30:01;20.91;63.28
65239;SHT30;51827;51.186;6.926;2023-10-08T05:31:07;20.93;63.25
65239;SHT30;51827;51.186;6.926;2023-10-08T05:32:08;20.92;63.23
65239;SHT30;51827;51.186;6.926;2023-10-08T05:33:08;20.91;63.24
65239;SHT30;51827;51.186;6.926;2023-10-08T05:34:09;20.92;63.20
65239;SHT30;51827;51.186;6.926;2023-10-08T05:35:09;20.93;63.21
65239;SHT30;51827;51.186;6.926;2023-10-08T05:36:09;20.91;63.25
65239;SHT30;51827;51.186;6.926;2023-10-08T05:37:09;20.93;63.21
65239;SHT30;51827;51.186;6.926;2023-10-08T05:38:27;20.92;63.22
65239;SHT30;51827;51.186;6.926;2023-10-08T05:39:28;20.92;63.15
65239;SHT30;51827;51.186;6.926;2023-10-08T05:40:28;20.95;63.15
65239;SHT30;51827;51.186;6.926;2023-10-08T05:41:28;20.95;63.19
65239;SHT30;51827;51.186;6.926;2023-10-08T05:42:28;20.91;63.20
65239;SHT30;51827;51.186;6.926;2023-10-08T05:44:28;20.93;63.19
65239;SHT30;51827;51.186;6.926;2023-10-08T05:45:30;20.91;63.18
65239;SHT30;51827;51.186;6.926;2023-10-08T05:46:30;20.92;63.17
65239;SHT30;51827;51.186;6.926;2023-10-08T05:47:30;20.92;63.16
65239;SHT30;51827;51.186;6.926;2023-10-08T05:48:31;20.89;63.15
65239;SHT30;51827;51.186;6.926;2023-10-08T05:49:31;20.93;63.16
65239;SHT30;51827;51.186;6.926;2023-10-08T05:50:31;20.91;63.16
65239;SHT30;51827;51.186;6.926;2023-10-08T05:51:31;20.91;63.13
65239;SHT30;51827;51.186;6.926;2023-10-08T05:52:32;20.92;63.14
65239;SHT30;51827;51.186;6.926;2023-10-08T05:53:32;20.88;63.11
65239;SHT30;51827;51.186;6.926;2023-10-08T05:54:32;20.91;63.09
65239;SHT30;51827;51.186;6.926;2023-10-08T05:55:32;20.91;63.09
65239;SHT30;51827;51.186;6.926;2023-10-08T05:56:33;20.89;63.09
65239;SHT30;51827;51.186;6.926;2023-10-08T05:57:33;20.91;63.10
65239;SHT30;51827;51.186;6.926;2023-10-08T05:58:33;20.89;63.09
65239;SHT30;51827;51.186;6.926;2023-10-08T05:59:33;20.92;63.10
65239;SHT30;51827;51.186;6.926;2023-10-08T06:00:33;20.89;63.06
65239;SHT30;51827;51.186;6.926;2023-10-08T06:01:33;20.88;63.07
65239;SHT30;51827;51.186;6.926;2023-10-08T06:02:34;20.91;63.07
65239;SHT30;51827;51.186;6.926;2023-10-08T06:03:34;20.89;63.08
65239;SHT30;51827;51.186;6.926;2023-10-08T06:04:34;20.91;63.07
65239;SHT30;51827;51.186;6.926;2023-10-08T06:05:34;20.88;63.07
65239;SHT30;51827;51.186;6.926;2023-10-08T06:06:34;20.89;63.05
65239;SHT30;51827;51.186;6.926;2023-10-08T06:07:35;20.91;63.01
65239;SHT30;51827;51.186;6.926;2023-10-08T06:08:35;20.89;63.05
65239;SHT30;51827;51.186;6.926;2023-10-08T06:09:35;20.91;63.06
65239;SHT30;51827;51.186;6.926;2023-10-08T06:10:35;20.88;63.03
65239;SHT30;51827;51.186;6.926;2023-10-08T06:11:36;20.88;63.06
65239;SHT30;51827;51.186;6.926;2023-10-08T06:12:36;20.88;63.06
65239;SHT30;51827;51.186;6.926;2023-10-08T06:13:36;20.91;62.99
65239;SHT30;51827;51.186;6.926;2023-10-08T06:14:37;20.89;63.00
65239;SHT30;51827;51.186;6.926;2023-10-08T06:15:37;20.88;63.05
65239;SHT30;51827;51.186;6.926;2023-10-08T06:16:38;20.89;63.07
65239;SHT30;51827;51.186;6.926;2023-10-08T06:17:38;20.88;63.04
65239;SHT30;51827;51.186;6.926;2023-10-08T06:18:38;20.89;62.99
65239;SHT30;51827;51.186;6.926;2023-10-08T06:19:39;20.86;63.00
65239;SHT30;51827;51.186;6.926;2023-10-08T06:20:39;20.89;63.05
65239;SHT30;51827;51.186;6.926;2023-10-08T06:21:40;20.88;62.98
65239;SHT30;51827;51.186;6.926;2023-10-08T06:22:40;20.89;62.99